Time;durP1;ratioP1;P1;durP2;ratioP2;P2;SDS_P1;SDS_P2;PMS_P1;PMS_P2;Temp;Humidity;BMP_temperature;BMP_pressure;BME280_temperature;BME280_humidity;BME280_pressure;Samples;Min_cycle;Max_cycle;Signal;HPM_P1;HPM_P2
2022/01/01 00:00:16;;;;;;;;;;;;;;;11.14;63.79;100032.59;5050163;28;19913;-87
2022/01/01 00:02:42;;;;;;;;;;;;;;;11.27;63.32;100028.88;5049871;28;19920;-86
2022/01/01 00:05:08;;;;;;;;;;;;;;;11.32;62.63;100028.81;5065081;28;19927;-87
2022/01/01 00:07:34;;;;;;;;;;;;;;;11.32;63.02;100020.91;5049776;28;20379;-86
2022/01/01 00:10:00;;;;;;;;;;;;;;;11.29;62.42;100018.31;5049308;28;20405;-85
2022/01/01 00:12:25;;;;;;;;;;;;;;;11.51;61.90;100016.28;5049584;28;19921;-87
2022/01/01 00:14:50;;;;;;;;;;;;;;;11.34;62.17;100010.31;5049625;28;20303;-87
2022/01/01 00:17:16;;;;;;;;;;;;;;;11.34;62.22;100010.31;5049463;28;19956;-87
2022/01/01 00:19:41;;;;;;;;;;;;;;;11.38;61.99;100006.75;5049484;28;19948;-87
2022/01/01 00:22:07;;;;;;;;;;;;;;;11.32;62.10;100006.84;5064252;28;19978;-86
2022/01/01 00:24:35;;;;;;;;;;;;;;;11.40;62.05;100004.94;5049230;28;20028;-88
2022/01/01 00:27:01;;;;;;;;;;;;;;;11.37;62.03;100010.28;5049695;28;19912;-87
2022/01/01 00:29:27;;;;;;;;;;;;;;;11.31;62.06;100005.06;5049201;28;19986;-87
2022/01/01 00:31:52;;;;;;;;;;;;;;;11.32;61.96;100006.84;5049440;28;20648;-86
2022/01/01 00:34:18;;;;;;;;;;;;;;;11.46;61.69;100005.78;5049389;28;19916;-87
2022/01/01 00:36:43;;;;;;;;;;;;;;;11.53;61.17;100001.25;5048662;28;19967;-86
2022/01/01 00:39:08;;;;;;;;;;;;;;;11.38;61.75;100004.13;5048952;28;20012;-87
2022/01/01 00:41:34;;;;;;;;;;;;;;;11.40;61.40;99990.00;5049403;28;19920;-86
2022/01/01 00:43:59;;;;;;;;;;;;;;;11.38;61.11;99993.56;5047915;28;19920;-86
2022/01/01 00:46:25;;;;;;;;;;;;;;;11.39;61.26;99992.66;5048853;28;19916;-88
2022/01/01 00:48:53;;;;;;;;;;;;;;;11.40;61.21;99984.72;5048842;28;19978;-86
2022/01/01 00:51:21;;;;;;;;;;;;;;;11.51;61.05;99991.59;5047993;28;19928;-87
2022/01/01 00:53:47;;;;;;;;;;;;;;;11.51;61.09;99995.13;5049301;28;20452;-87
2022/01/01 00:56:12;;;;;;;;;;;;;;;11.56;60.64;99987.16;5048132;28;19921;-87
2022/01/01 00:58:37;;;;;;;;;;;;;;;11.56;60.60;99995.06;5048295;28;20490;-86
2022/01/01 01:01:03;;;;;;;;;;;;;;;11.56;60.75;99990.66;5040716;28;19917;-87
2022/01/01 01:03:28;;;;;;;;;;;;;;;11.74;60.03;99996.56;5028829;28;19921;-86
2022/01/01 01:05:53;;;;;;;;;;;;;;;11.72;59.68;99998.34;5027481;28;19917;-86
2022/01/01 01:08:19;;;;;;;;;;;;;;;11.75;60.14;99993.03;5028617;28;20023;-87
2022/01/01 01:10:46;;;;;;;;;;;;;;;11.64;60.57;99985.25;5043483;28;20683;-86
2022/01/01 01:13:15;;;;;;;;;;;;;;;11.71;59.98;99978.09;5048658;28;19982;-86
2022/01/01 01:15:40;;;;;;;;;;;;;;;11.82;59.90;99982.34;5047995;28;20468;-86
2022/01/01 01:18:05;;;;;;;;;;;;;;;11.29;61.55;99969.03;5047497;28;19929;-87
2022/01/01 01:20:32;;;;;;;;;;;;;;;11.41;61.27;99967.09;5048331;28;19920;-87
2022/01/01 01:22:57;;;;;;;;;;;;;;;11.42;61.52;99969.72;5047559;28;19925;-87
2022/01/01 01:25:24;;;;;;;;;;;;;;;11.33;61.41;99963.69;5048717;28;19927;-87
2022/01/01 01:27:50;;;;;;;;;;;;;;;11.38;61.41;99961.84;5047437;28;19932;-86
2022/01/01 01:30:16;;;;;;;;;;;;;;;11.57;60.71;99947.50;5048070;28;20342;-86
2022/01/01 01:32:42;;;;;;;;;;;;;;;11.48;60.74;99950.28;5049017;28;19928;-86
2022/01/01 01:35:08;;;;;;;;;;;;;;;11.53;60.74;99944.91;5047254;28;19929;-86
2022/01/01 01:37:33;;;;;;;;;;;;;;;11.54;60.21;99954.56;5048003;28;19921;-87
2022/01/01 01:39:59;;;;;;;;;;;;;;;11.49;60.47;99952.00;5047669;28;19917;-87
2022/01/01 01:42:26;;;;;;;;;;;;;;;11.51;60.16;99949.34;5046484;28;20446;-86
2022/01/01 01:44:53;;;;;;;;;;;;;;;11.44;60.42;99945.91;5047843;28;19928;-86
2022/01/01 01:47:28;;;;;;;;;;;;;;;11.35;60.66;99940.75;5047797;28;19927;-86
2022/01/01 01:49:54;;;;;;;;;;;;;;;11.15;60.89;99944.53;5047446;28;19928;-86
2022/01/01 01:52:19;;;;;;;;;;;;;;;11.14;61.14;99942.81;5046588;28;19921;-86
2022/01/01 01:54:45;;;;;;;;;;;;;;;11.01;61.47;99941.22;5047611;28;19924;-86
2022/01/01 01:57:11;;;;;;;;;;;;;;;10.96;61.95;99943.06;5046626;28;20379;-86
2022/01/01 01:59:36;;;;;;;;;;;;;;;10.90;61.93;99941.34;5047419;28;19995;-87
2022/01/01 02:02:01;;;;;;;;;;;;;;;10.82;62.55;99945.88;5047041;28;19924;-87
2022/01/01 02:04:27;;;;;;;;;;;;;;;10.72;63.09;99947.72;5047307;28;19997;-85
2022/01/01 02:06:52;;;;;;;;;;;;;;;10.76;62.84;99944.16;5047785;28;20393;-86
2022/01/01 02:09:18;;;;;;;;;;;;;;;10.98;62.28;99950.03;5047547;28;20721;-86
2022/01/01 02:11:43;;;;;;;;;;;;;;;10.96;62.50;99943.06;5046922;28;19921;-86
2022/01/01 02:19:26;;;;;;;;;;;;;;;11.10;61.85;99935.81;5047094;28;19928;-86
2022/01/01 02:21:56;;;;;;;;;;;;;;;11.07;61.56;99930.59;5045229;28;20315;-86
2022/01/01 02:24:21;;;;;;;;;;;;;;;11.11;61.60;99924.38;5047413;28;19928;-85
2022/01/01 02:26:47;;;;;;;;;;;;;;;10.94;62.12;99916.69;5046184;28;19925;-86
2022/01/01 02:29:12;;;;;;;;;;;;;;;10.92;61.90;99931.66;5047096;28;20059;-85
2022/01/01 02:31:37;;;;;;;;;;;;;;;10.84;62.36;99926.47;5046889;28;19917;-85
2022/01/01 02:34:04;;;;;;;;;;;;;;;10.53;62.53;99934.75;5047118;28;19920;-86
2022/01/01 02:36:30;;;;;;;;;;;;;;;10.37;63.52;99930.53;5047501;28;19917;-86
2022/01/01 02:38:56;;;;;;;;;;;;;;;10.20;62.75;99926.25;5046986;28;19920;-86
2022/01/01 02:41:21;;;;;;;;;;;;;;;9.90;63.50;99926.53;5046976;28;19920;-85
2022/01/01 02:43:46;;;;;;;;;;;;;;;9.65;64.12;99930.25;5046924;28;19932;-86
2022/01/01 02:46:12;;;;;;;;;;;;;;;9.50;66.26;99936.50;5047015;28;19986;-85
2022/01/01 02:48:37;;;;;;;;;;;;;;;9.52;65.97;99927.72;5047283;28;19924;-86
2022/01/01 02:51:03;;;;;;;;;;;;;;;9.55;65.65;99923.31;5047111;28;19920;-86
2022/01/01 02:53:30;;;;;;;;;;;;;;;9.56;65.33;99924.16;5046648;28;20475;-86
2022/01/01 02:55:55;;;;;;;;;;;;;;;9.55;64.86;99910.13;5046861;28;20031;-85
2022/01/01 02:58:20;;;;;;;;;;;;;;;9.45;65.96;99924.25;5046663;28;19935;-86
2022/01/01 03:00:46;;;;;;;;;;;;;;;9.43;66.71;99915.50;5046607;28;20406;-86
2022/01/01 03:03:11;;;;;;;;;;;;;;;9.12;67.66;99920.94;5047371;28;19927;-86
2022/01/01 03:05:37;;;;;;;;;;;;;;;8.91;68.84;99914.03;5047611;28;19928;-86
2022/01/01 03:08:02;;;;;;;;;;;;;;;9.20;68.05;99921.75;5050781;28;19931;-86
2022/01/01 03:10:28;;;;;;;;;;;;;;;9.17;69.42;99921.78;5050590;28;19921;-86
2022/01/01 03:12:53;;;;;;;;;;;;;;;9.37;68.88;99926.94;5050323;28;20353;-86
2022/01/01 03:15:18;;;;;;;;;;;;;;;9.67;67.63;99925.84;5081757;28;20685;-86
2022/01/01 03:17:44;;;;;;;;;;;;;;;9.97;66.93;99923.84;5050574;28;19981;-85
2022/01/01 03:20:09;;;;;;;;;;;;;;;10.31;65.66;99927.94;5050855;28;20484;-86
2022/01/01 03:22:35;;;;;;;;;;;;;;;10.32;65.48;99917.38;5049735;28;20012;-86
2022/01/01 03:25:00;;;;;;;;;;;;;;;10.50;64.56;99929.53;5050257;28;19916;-86
2022/01/01 03:27:26;;;;;;;;;;;;;;;10.45;64.92;99917.28;5050052;28;19987;-86
2022/01/01 03:29:51;;;;;;;;;;;;;;;10.54;64.37;99915.38;5049350;28;20390;-86
2022/01/01 03:32:17;;;;;;;;;;;;;;;10.53;64.34;99929.50;5050535;28;19970;-87
2022/01/01 03:34:43;;;;;;;;;;;;;;;10.55;64.67;99925.06;5049325;28;20007;-86
2022/01/01 03:37:08;;;;;;;;;;;;;;;10.62;64.40;99917.06;5049973;28;20011;-86
2022/01/01 03:39:34;;;;;;;;;;;;;;;10.37;64.98;99914.72;5050319;28;19928;-87
2022/01/01 03:42:00;;;;;;;;;;;;;;;10.49;65.13;99911.06;5050038;28;19983;-86
2022/01/01 03:44:25;;;;;;;;;;;;;;;10.55;64.82;99914.50;5049232;28;19970;-86
2022/01/01 03:46:51;;;;;;;;;;;;;;;10.63;64.45;99908.25;5050232;28;19924;-86
2022/01/01 03:49:16;;;;;;;;;;;;;;;10.79;64.17;99901.03;5050022;28;20031;-86
2022/01/01 03:51:42;;;;;;;;;;;;;;;10.89;63.64;99900.91;5049352;28;20011;-86
2022/01/01 03:54:07;;;;;;;;;;;;;;;10.94;63.62;99898.22;5049755;28;19916;-86
2022/01/01 03:56:33;;;;;;;;;;;;;;;10.99;63.17;99890.22;5048496;28;19979;-86
2022/01/01 03:58:59;;;;;;;;;;;;;;;11.05;63.27;99898.94;5049898;28;19971;-86
2022/01/01 04:01:24;;;;;;;;;;;;;;;11.08;63.11;99893.59;5049135;28;19921;-86
2022/01/01 04:03:49;;;;;;;;;;;;;;;11.11;63.07;99896.19;5050366;28;19931;-86
2022/01/01 04:06:15;;;;;;;;;;;;;;;11.00;63.36;99891.94;5049223;28;19923;-86
2022/01/01 04:08:40;;;;;;;;;;;;;;;11.04;63.34;99894.53;5049209;28;19956;-87
2022/01/01 04:11:05;;;;;;;;;;;;;;;11.17;62.80;99886.44;5049563;28;19924;-86
2022/01/01 04:13:31;;;;;;;;;;;;;;;11.26;62.47;99884.56;5048637;28;19971;-86
2022/01/01 04:15:56;;;;;;;;;;;;;;;11.46;61.82;99878.06;5049631;28;19978;-86
2022/01/01 04:18:38;;;;;;;;;;;;;;;11.51;62.08;99883.28;5047165;28;19971;-86
2022/01/01 04:21:10;;;;;;;;;;;;;;;11.68;61.33;99886.56;5049758;28;19928;-86
2022/01/01 04:23:36;;;;;;;;;;;;;;;11.80;60.50;99869.59;5048300;28;19920;-86
2022/01/01 04:26:02;;;;;;;;;;;;;;;11.90;60.34;99870.31;5049104;28;20414;-85
2022/01/01 04:28:27;;;;;;;;;;;;;;;12.00;60.42;99870.16;5049301;28;19917;-86
2022/01/01 04:30:52;;;;;;;;;;;;;;;11.83;60.78;99873.06;5063824;28;19921;-86
2022/01/01 04:33:18;;;;;;;;;;;;;;;11.87;60.22;99870.38;5049700;28;19925;-86
2022/01/01 04:35:43;;;;;;;;;;;;;;;11.76;60.77;99876.72;5048619;28;20013;-85
2022/01/01 04:38:20;;;;;;;;;;;;;;;11.76;60.85;99873.22;5048751;28;20388;-86
2022/01/01 04:40:45;;;;;;;;;;;;;;;11.75;60.61;99877.59;5048961;28;19968;-85
2022/01/01 04:43:11;;;;;;;;;;;;;;;11.78;60.57;99861.69;5048139;28;20014;-86
2022/01/01 04:45:36;;;;;;;;;;;;;;;11.69;60.87;99869.78;5048978;28;19924;-87
2022/01/01 04:48:01;;;;;;;;;;;;;;;11.69;60.71;99861.84;5047806;28;19920;-86
2022/01/01 04:50:27;;;;;;;;;;;;;;;11.81;60.12;99856.34;5048743;28;19925;-86
2022/01/01 04:52:55;;;;;;;;;;;;;;;11.83;60.10;99849.28;5048930;28;19921;-86
2022/01/01 04:55:22;;;;;;;;;;;;;;;11.93;59.87;99857.94;5047872;28;19927;-86
2022/01/01 04:57:47;;;;;;;;;;;;;;;11.84;60.38;99860.72;5049169;28;19978;-86
2022/01/01 05:00:13;;;;;;;;;;;;;;;11.93;60.24;99852.66;5047114;28;19949;-85
2022/01/01 05:02:38;;;;;;;;;;;;;;;12.05;60.09;99851.56;5028926;28;19960;-86
2022/01/01 05:05:04;;;;;;;;;;;;;;;12.11;59.20;99856.75;5042846;28;19963;-86
2022/01/01 05:07:29;;;;;;;;;;;;;;;12.07;59.61;99856.84;5048438;28;20012;-85
2022/01/01 05:09:54;;;;;;;;;;;;;;;12.09;59.78;99855.03;5047645;28;19971;-85
2022/01/01 05:12:20;;;;;;;;;;;;;;;11.99;59.90;99849.91;5047746;28;19968;-87
2022/01/01 05:14:45;;;;;;;;;;;;;;;12.14;59.55;99851.41;5048443;28;19921;-86
2022/01/01 05:17:12;;;;;;;;;;;;;;;12.20;59.47;99845.09;5047333;28;19921;-86
2022/01/01 05:19:37;;;;;;;;;;;;;;;12.24;59.21;99838.88;5048308;28;20311;-86
2022/01/01 05:22:03;;;;;;;;;;;;;;;12.30;59.10;99845.81;5047267;28;19925;-86
2022/01/01 05:24:28;;;;;;;;;;;;;;;12.22;59.80;99847.72;5047985;28;20007;-86
2022/01/01 05:26:54;;;;;;;;;;;;;;;12.28;59.12;99840.56;5048030;28;19952;-86
2022/01/01 05:29:19;;;;;;;;;;;;;;;12.42;58.94;99850.88;5046975;28;19927;-87
2022/01/01 05:31:44;;;;;;;;;;;;;;;12.54;58.36;99837.38;5048228;28;19925;-87
2022/01/01 05:34:10;;;;;;;;;;;;;;;12.65;58.72;99846.84;5046949;28;19924;-86
2022/01/01 05:36:35;;;;;;;;;;;;;;;12.75;57.97;99850.19;5047678;28;19921;-86
2022/01/01 05:39:00;;;;;;;;;;;;;;;12.82;57.49;99846.50;5047931;28;20696;-86
2022/01/01 05:41:26;;;;;;;;;;;;;;;12.77;57.59;99840.44;5047981;28;20417;-86
2022/01/01 05:43:51;;;;;;;;;;;;;;;12.76;57.89;99850.16;5047030;28;19974;-85
2022/01/01 05:46:16;;;;;;;;;;;;;;;12.70;58.13;99851.16;5047928;28;19968;-87
2022/01/01 05:48:42;;;;;;;;;;;;;;;12.73;58.29;99868.75;5046353;28;19924;-88
2022/01/01 05:51:08;;;;;;;;;;;;;;;12.81;57.71;99863.31;5046702;28;19921;-86
2022/01/01 05:53:33;;;;;;;;;;;;;;;12.88;57.40;99868.44;5047456;28;19920;-87
2022/01/01 05:55:58;;;;;;;;;;;;;;;13.15;56.42;99874.00;5046970;28;19920;-86
2022/01/01 05:58:24;;;;;;;;;;;;;;;13.08;56.41;99881.25;5045293;28;19920;-86
2022/01/01 06:00:49;;;;;;;;;;;;;;;13.06;56.61;99882.16;5047504;28;20725;-87
2022/01/01 06:03:15;;;;;;;;;;;;;;;13.06;56.26;99883.03;5047516;28;20593;-86
2022/01/01 06:05:40;;;;;;;;;;;;;;;12.61;57.45;99893.69;5047007;28;19955;-86
2022/01/01 06:08:06;;;;;;;;;;;;;;;12.04;58.83;99892.13;5047100;28;20352;-85
2022/01/01 06:10:31;;;;;;;;;;;;;;;11.92;59.53;99892.31;5047175;28;19921;-86
2022/01/01 06:12:56;;;;;;;;;;;;;;;11.59;60.39;99903.41;5047326;28;19920;-86
2022/01/01 06:15:22;;;;;;;;;;;;;;;11.63;60.41;99897.19;5046703;28;19917;-87
2022/01/01 06:17:47;;;;;;;;;;;;;;;11.39;61.29;99900.22;5047065;28;20442;-86
2022/01/01 06:20:13;;;;;;;;;;;;;;;11.26;61.61;99897.75;5046630;28;19939;-86
2022/01/01 06:22:38;;;;;;;;;;;;;;;10.48;63.46;99894.34;5047107;28;19921;-85
2022/01/01 06:25:04;;;;;;;;;;;;;;;10.33;64.02;99892.78;5046321;28;19921;-85
2022/01/01 06:27:30;;;;;;;;;;;;;;;10.01;64.89;99899.22;5046339;28;19974;-85
2022/01/01 06:29:55;;;;;;;;;;;;;;;10.28;64.87;99909.50;5047086;28;20432;-85
2022/01/01 06:32:20;;;;;;;;;;;;;;;9.99;65.58;99914.19;5046272;28;19921;-85
2022/01/01 06:34:46;;;;;;;;;;;;;;;10.01;65.69;99917.66;5046536;28;19923;-86
2022/01/01 06:37:11;;;;;;;;;;;;;;;9.83;66.68;99923.09;5045775;28;19925;-85
2022/01/01 06:39:37;;;;;;;;;;;;;;;9.98;66.28;99932.63;5046855;28;19928;-86
2022/01/01 06:42:02;;;;;;;;;;;;;;;9.64;67.77;99938.19;5045660;28;19940;-85
2022/01/01 06:44:28;;;;;;;;;;;;;;;9.31;68.69;99933.13;5046291;28;20023;-85
2022/01/01 06:46:53;;;;;;;;;;;;;;;9.45;68.75;99940.03;5046508;28;19921;-86
2022/01/01 06:49:18;;;;;;;;;;;;;;;9.55;68.79;99938.25;5046309;28;19983;-87
2022/01/01 06:51:44;;;;;;;;;;;;;;;9.64;68.50;99946.09;5045717;28;19978;-85
2022/01/01 06:54:09;;;;;;;;;;;;;;;9.29;69.22;99931.38;5046437;28;20329;-85
2022/01/01 06:56:35;;;;;;;;;;;;;;;9.27;70.29;99948.94;5045408;28;19921;-85
2022/01/01 06:59:00;;;;;;;;;;;;;;;9.36;70.17;99953.25;5046312;28;19917;-86
2022/01/01 07:01:25;;;;;;;;;;;;;;;9.50;70.07;99959.34;5045597;28;19925;-85
2022/01/01 07:03:50;;;;;;;;;;;;;;;9.44;70.58;99951.47;5046652;28;19921;-86
2022/01/01 07:06:16;;;;;;;;;;;;;;;9.81;68.89;99954.72;5045342;28;20318;-85
2022/01/01 07:08:41;;;;;;;;;;;;;;;9.89;68.39;99948.53;5046389;28;19921;-86
2022/01/01 07:11:06;;;;;;;;;;;;;;;10.00;68.13;99951.94;5047045;28;19956;-85
2022/01/01 07:13:32;;;;;;;;;;;;;;;10.18;67.49;99950.91;5044167;28;20025;-85
2022/01/01 07:15:57;;;;;;;;;;;;;;;10.12;67.80;99954.47;5046294;28;19917;-85
2022/01/01 07:18:22;;;;;;;;;;;;;;;10.07;68.32;99965.94;5045322;28;20394;-86
2022/01/01 07:20:48;;;;;;;;;;;;;;;9.92;68.93;99965.19;5045554;28;19928;-84
2022/01/01 07:23:13;;;;;;;;;;;;;;;10.12;67.94;99961.50;5077999;28;20454;-85
2022/01/01 07:25:38;;;;;;;;;;;;;;;10.34;67.69;99952.53;5045002;28;19981;-85
2022/01/01 07:28:04;;;;;;;;;;;;;;;10.39;67.43;99963.03;5045902;28;19978;-85
2022/01/01 07:30:29;;;;;;;;;;;;;;;10.32;67.88;99969.25;5045492;28;20031;-86
2022/01/01 07:32:55;;;;;;;;;;;;;;;10.44;67.31;99963.88;5046290;28;19928;-85
2022/01/01 07:35:21;;;;;;;;;;;;;;;10.39;67.46;99971.84;5045556;28;19921;-85
2022/01/01 07:37:46;;;;;;;;;;;;;;;10.33;67.99;99979.81;5046249;28;19928;-85
2022/01/01 07:40:13;;;;;;;;;;;;;;;10.11;68.30;99968.53;5046383;28;19921;-85
2022/01/01 07:42:38;;;;;;;;;;;;;;;10.15;68.51;99972.03;5043852;28;20313;-87
2022/01/01 07:45:04;;;;;;;;;;;;;;;9.74;70.10;99973.22;5045844;28;19932;-85
2022/01/01 07:47:29;;;;;;;;;;;;;;;10.14;69.02;99946.53;5045953;28;19920;-85
2022/01/01 07:49:55;;;;;;;;;;;;;;;9.83;69.24;99942.41;5045632;28;19927;-86
2022/01/01 07:52:20;;;;;;;;;;;;;;;9.85;70.71;99947.66;5046518;28;20661;-86
2022/01/01 07:54:45;;;;;;;;;;;;;;;10.06;69.84;99943.97;5049571;28;19982;-85
2022/01/01 07:57:11;;;;;;;;;;;;;;;10.23;69.13;99933.28;5049171;28;20346;-84
2022/01/01 07:59:36;;;;;;;;;;;;;;;10.43;68.86;99938.38;5049989;28;19935;-85
2022/01/01 08:02:01;;;;;;;;;;;;;;;10.36;68.95;99941.97;5048970;28;20404;-86
2022/01/01 08:04:27;;;;;;;;;;;;;;;10.61;67.91;99931.16;5049509;28;20748;-85
2022/01/01 08:06:52;;;;;;;;;;;;;;;10.77;67.68;99927.44;5048914;28;20288;-85
2022/01/01 08:09:17;;;;;;;;;;;;;;;10.86;67.70;99922.06;5048857;28;20389;-85
2022/01/01 08:11:43;;;;;;;;;;;;;;;10.60;67.72;99917.09;5064180;28;19928;-86
2022/01/01 08:14:08;;;;;;;;;;;;;;;10.79;67.86;99916.88;5049100;28;19927;-85
2022/01/01 08:16:33;;;;;;;;;;;;;;;10.93;67.50;99915.78;5048795;28;20421;-86
2022/01/01 08:18:59;;;;;;;;;;;;;;;11.04;67.02;99913.00;5048709;28;19921;-85
2022/01/01 08:21:24;;;;;;;;;;;;;;;10.96;67.47;99917.53;5048814;28;19940;-87
2022/01/01 08:23:49;;;;;;;;;;;;;;;11.20;66.71;99913.69;5049358;28;19920;-86
2022/01/01 08:26:15;;;;;;;;;;;;;;;11.25;66.16;99919.78;5048816;28;20011;-86
2022/01/01 08:28:41;;;;;;;;;;;;;;;11.40;65.92;99928.34;5048956;28;19927;-87
2022/01/01 08:31:07;;;;;;;;;;;;;;;11.42;65.54;99926.59;5048927;28;19920;-87
2022/01/01 08:33:32;;;;;;;;;;;;;;;11.68;65.28;99926.19;5048597;28;20020;-86
2022/01/01 08:35:57;;;;;;;;;;;;;;;11.78;64.95;99930.41;5048695;28;19928;-86
2022/01/01 08:38:23;;;;;;;;;;;;;;;11.90;64.11;99937.28;5048619;28;19927;-86
2022/01/01 08:40:48;;;;;;;;;;;;;;;12.11;62.99;99943.13;5064251;28;20008;-86
2022/01/01 08:43:13;;;;;;;;;;;;;;;12.54;61.78;99930.00;5048161;28;19917;-86
2022/01/01 08:45:39;;;;;;;;;;;;;;;13.13;59.28;99941.16;5048662;28;19917;-86
2022/01/01 08:48:05;;;;;;;;;;;;;;;13.64;57.64;99940.06;5048533;28;20654;-86
2022/01/01 08:50:30;;;;;;;;;;;;;;;14.04;56.81;99947.94;5048169;28;19923;-86
2022/01/01 08:52:57;;;;;;;;;;;;;;;14.23;54.97;99952.75;5047870;28;19917;-86
2022/01/01 08:55:23;;;;;;;;;;;;;;;14.40;54.69;99954.97;5063241;28;19931;-86
2022/01/01 08:57:48;;;;;;;;;;;;;;;14.49;54.27;99965.34;5048379;28;20323;-86
2022/01/01 09:00:13;;;;;;;;;;;;;;;14.55;54.29;99962.53;5047796;28;19927;-87
2022/01/01 09:02:39;;;;;;;;;;;;;;;14.59;53.25;99964.16;5045530;28;20386;-86
2022/01/01 09:05:05;;;;;;;;;;;;;;;14.57;52.99;99967.78;5047790;28;19994;-86
2022/01/01 09:07:30;;;;;;;;;;;;;;;14.62;53.72;99961.44;5046309;28;19932;-87
2022/01/01 09:09:56;;;;;;;;;;;;;;;14.68;53.34;99955.97;5047201;28;19947;-86
2022/01/01 09:12:21;;;;;;;;;;;;;;;14.60;53.07;99952.66;5047028;28;19921;-85
2022/01/01 09:14:47;;;;;;;;;;;;;;;14.46;53.40;99945.06;5063300;28;19925;-86
2022/01/01 09:17:12;;;;;;;;;;;;;;;14.61;52.88;99945.56;5046736;28;19991;-86
2022/01/01 09:19:40;;;;;;;;;;;;;;;14.63;52.96;99943.75;5046774;28;20220;-86
2022/01/01 09:22:05;;;;;;;;;;;;;;;14.66;52.93;99949.84;5032601;28;20721;-89
2022/01/01 09:24:31;;;;;;;;;;;;;;;14.76;53.10;99945.13;5028251;28;19920;-87
2022/01/01 09:26:56;;;;;;;;;;;;;;;14.86;52.01;99943.97;5027882;28;19971;-85
2022/01/01 09:29:22;;;;;;;;;;;;;;;14.89;52.59;99945.69;5027747;28;20306;-86
2022/01/01 09:31:47;;;;;;;;;;;;;;;14.99;52.13;99943.63;5027377;28;19921;-87
2022/01/01 09:34:12;;;;;;;;;;;;;;;15.16;52.66;99943.13;5027996;28;20003;-88
2022/01/01 09:36:38;;;;;;;;;;;;;;;15.16;52.94;99938.66;5059293;28;19948;-86
2022/01/01 09:39:04;;;;;;;;;;;;;;;15.31;52.49;99941.81;5027788;28;19928;-87
2022/01/01 09:41:30;;;;;;;;;;;;;;;15.30;51.94;99935.59;5027746;28;19913;-87
2022/01/01 09:43:55;;;;;;;;;;;;;;;15.35;51.73;99938.09;5027184;28;19928;-87
2022/01/01 09:46:21;;;;;;;;;;;;;;;15.36;51.62;99937.19;5027923;28;19921;-87
2022/01/01 09:48:47;;;;;;;;;;;;;;;15.49;50.81;99927.94;5027398;28;19917;-87
2022/01/01 09:51:14;;;;;;;;;;;;;;;15.60;50.70;99924.94;5027059;28;20425;-88
2022/01/01 09:53:39;;;;;;;;;;;;;;;15.72;50.94;99928.97;5027402;28;19969;-87
2022/01/01 09:56:05;;;;;;;;;;;;;;;15.70;50.86;99934.34;5027269;28;20393;-86
2022/01/01 09:58:35;;;;;;;;;;;;;;;15.73;50.75;99934.25;5026926;28;19928;-87
2022/01/01 10:01:00;;;;;;;;;;;;;;;15.72;50.55;99924.53;5027419;28;20288;-87
2022/01/01 10:03:38;;;;;;;;;;;;;;;15.79;50.08;99930.56;5027270;28;19943;-87
2022/01/01 10:06:08;;;;;;;;;;;;;;;15.69;51.39;99927.31;5027462;28;19921;-87
2022/01/01 10:08:37;;;;;;;;;;;;;;;15.55;50.89;99925.09;5026939;28;19956;-87
2022/01/01 10:11:03;;;;;;;;;;;;;;;15.64;51.08;99923.03;5027393;28;19922;-87
2022/01/01 10:13:29;;;;;;;;;;;;;;;15.73;50.95;99912.09;5027094;28;19933;-87
2022/01/01 10:15:56;;;;;;;;;;;;;;;15.82;51.18;99913.59;5025971;28;19928;-87
2022/01/01 10:18:25;;;;;;;;;;;;;;;15.87;50.31;99915.19;5027115;28;19921;-87
2022/01/01 10:20:57;;;;;;;;;;;;;;;16.15;49.70;99908.94;5029456;28;19923;-87
2022/01/01 10:23:27;;;;;;;;;;;;;;;16.39;49.95;99901.91;5047198;28;19928;-86
2022/01/01 10:28:36;;;;;;;;;;;;;;;16.85;49.32;99896.66;5046791;28;20707;-86
2022/01/01 10:31:07;;;;;;;;;;;;;;;16.91;48.69;99904.47;5046018;28;19956;-87
2022/01/01 10:33:32;;;;;;;;;;;;;;;16.87;47.54;99899.31;5046634;28;19990;-87
2022/01/01 10:35:57;;;;;;;;;;;;;;;17.05;48.17;99895.94;5046419;28;19921;-87
2022/01/01 10:38:26;;;;;;;;;;;;;;;16.99;47.41;99894.41;5045642;28;19955;-88
2022/01/01 10:41:07;;;;;;;;;;;;;;;17.10;48.31;99895.75;5046150;28;19921;-87
2022/01/01 10:43:37;;;;;;;;;;;;;;;17.05;48.56;99898.59;5046053;28;19971;-86
2022/01/01 10:46:06;;;;;;;;;;;;;;;17.10;47.80;99901.09;5047248;28;19960;-86
2022/01/01 10:51:04;;;;;;;;;;;;;;;16.98;47.04;99889.97;5047057;28;19921;-88
2022/01/01 10:53:29;;;;;;;;;;;;;;;17.02;47.59;99898.72;5045934;28;20410;-88
2022/01/01 10:55:56;;;;;;;;;;;;;;;17.05;47.43;99885.28;5046720;28;19979;-87
2022/01/01 10:58:23;;;;;;;;;;;;;;;17.18;47.02;99885.69;5046965;28;20414;-88
2022/01/01 11:00:49;;;;;;;;;;;;;;;17.31;46.43;99883.41;5046137;28;19921;-87
2022/01/01 11:03:16;;;;;;;;;;;;;;;16.95;46.69;99884.78;5047223;28;20410;-87
2022/01/01 11:05:42;;;;;;;;;;;;;;;16.77;46.68;99893.44;5045428;28;19921;-88
2022/01/01 11:08:08;;;;;;;;;;;;;;;16.61;47.67;99903.78;5047168;28;19983;-87
2022/01/01 11:10:34;;;;;;;;;;;;;;;16.53;48.22;99904.06;5046867;28;19959;-89
2022/01/01 11:13:01;;;;;;;;;;;;;;;16.52;48.38;99899.66;5045791;28;20031;-87
2022/01/01 11:15:27;;;;;;;;;;;;;;;16.47;48.60;99897.16;5047037;28;19916;-88
2022/01/01 11:17:52;;;;;;;;;;;;;;;16.55;48.39;99899.53;5046092;28;19978;-87
2022/01/01 11:20:18;;;;;;;;;;;;;;;16.67;48.71;99902.66;5045876;28;19998;-88
2022/01/01 11:22:44;;;;;;;;;;;;;;;16.82;47.63;99896.78;5046762;28;19928;-87
2022/01/01 11:25:10;;;;;;;;;;;;;;;16.81;47.96;99905.72;5045553;28;19917;-87
2022/01/01 11:27:36;;;;;;;;;;;;;;;17.10;47.12;99906.41;5047427;28;20056;-87
2022/01/01 11:30:07;;;;;;;;;;;;;;;17.11;46.77;99903.69;5050318;28;19980;-88
2022/01/01 11:32:50;;;;;;;;;;;;;;;17.07;47.48;99893.22;5050067;28;19927;-88
2022/01/01 11:35:19;;;;;;;;;;;;;;;17.19;47.03;99895.41;5049856;28;19920;-87
2022/01/01 11:38:03;;;;;;;;;;;;;;;17.10;46.80;99891.31;5049518;28;19920;-88
2022/01/01 11:40:39;;;;;;;;;;;;;;;16.75;47.10;99881.97;5048650;28;20101;-87
2022/01/01 11:43:04;;;;;;;;;;;;;;;16.76;47.79;99887.25;5049598;28;19968;-86
2022/01/01 11:45:41;;;;;;;;;;;;;;;16.62;48.02;99874.44;5049773;28;19996;-85
2022/01/01 11:48:25;;;;;;;;;;;;;;;16.56;48.47;99868.44;5050276;28;19920;-87
2022/01/01 11:50:50;;;;;;;;;;;;;;;16.60;48.03;99862.09;5049459;28;19921;-86
2022/01/01 11:53:31;;;;;;;;;;;;;;;16.75;47.89;99866.00;5049613;28;19920;-88
2022/01/01 11:56:02;;;;;;;;;;;;;;;16.79;47.89;99871.16;5049759;28;19957;-88
2022/01/01 11:58:44;;;;;;;;;;;;;;;16.85;47.50;99866.50;5049378;28;19921;-87
2022/01/01 12:01:10;;;;;;;;;;;;;;;16.81;47.30;99855.97;5048522;28;20098;-88
2022/01/01 12:03:47;;;;;;;;;;;;;;;17.14;46.41;99862.75;5049581;28;20038;-88
2022/01/01 12:06:12;;;;;;;;;;;;;;;17.43;46.38;99853.56;5048590;28;20011;-86
2022/01/01 12:08:42;;;;;;;;;;;;;;;17.70;45.75;99848.03;5049604;28;20520;-87
2022/01/01 12:11:08;;;;;;;;;;;;;;;17.64;45.85;99861.63;5048867;28;19950;-85
2022/01/01 12:13:38;;;;;;;;;;;;;;;17.51;45.63;99851.44;5048855;28;20413;-87
2022/01/01 12:16:19;;;;;;;;;;;;;;;17.48;45.84;99848.06;5048868;28;19979;-86
2022/01/01 12:18:44;;;;;;;;;;;;;;;17.57;45.66;99853.00;5048974;28;19921;-85
2022/01/01 12:21:18;;;;;;;;;;;;;;;17.47;46.45;99851.63;5049255;28;20310;-85
2022/01/01 12:23:46;;;;;;;;;;;;;;;17.46;46.75;99849.94;5048991;28;19928;-84
2022/01/01 12:26:14;;;;;;;;;;;;;;;17.40;47.26;99851.03;5064558;28;20352;-85
2022/01/01 12:28:39;;;;;;;;;;;;;;;17.26;46.93;99853.41;5048396;28;19928;-84
2022/01/01 12:31:07;;;;;;;;;;;;;;;17.28;46.34;99847.06;5049708;28;20301;-85
2022/01/01 12:33:39;;;;;;;;;;;;;;;17.18;46.65;99835.91;5048606;28;20314;-84
2022/01/01 12:36:05;;;;;;;;;;;;;;;17.06;46.35;99833.72;5049015;28;19946;-83
2022/01/01 12:38:31;;;;;;;;;;;;;;;17.12;46.77;99843.28;5047484;28;20024;-85
2022/01/01 12:40:56;;;;;;;;;;;;;;;17.15;47.02;99837.84;5048961;28;20016;-83
2022/01/01 12:43:22;;;;;;;;;;;;;;;17.08;46.79;99839.00;5048792;28;19920;-85
2022/01/01 12:45:51;;;;;;;;;;;;;;;17.06;46.88;99838.19;5048776;28;20371;-85
2022/01/01 12:48:21;;;;;;;;;;;;;;;17.03;46.83;99841.84;5048601;28;19921;-84
2022/01/01 12:50:46;;;;;;;;;;;;;;;17.03;46.57;99841.84;5048771;28;20457;-84
2022/01/01 12:53:13;;;;;;;;;;;;;;;17.14;46.68;99846.75;5049120;28;19978;-84